Time,TemperatureF,DewpointF,PressureIn,WindDirection,WindDirectionDegrees,WindSpeedMPH,WindSpeedGustMPH,Humidity,HourlyPrecipIn,Conditions,Clouds,dailyrainin,SoftwareType,DateUTC
2013-08-06 00:04:00,75.0,68.4,29.97,SSE,158,0.0,0.0,80,0.00,,,0.00,WSDL version 430,2013-08-06 05:04:00,
2013-08-06 00:09:00,75.7,68.9,29.97,SSE,158,0.0,0.0,80,0.00,,,0.00,WSDL version 430,2013-08-06 05:09:00,
2013-08-06 00:14:00,75.1,68.0,29.97,SSE,158,0.0,0.0,79,0.00,,,0.00,WSDL version 430,2013-08-06 05:14:00,
2013-08-06 00:19:00,74.5,67.6,29.97,SSE,158,0.0,1.6,79,0.00,,,0.00,WSDL version 430,2013-08-06 05:19:00,
2013-08-06 00:24:00,74.2,67.3,29.97,SSE,158,0.1,2.2,79,0.00,,,0.00,WSDL version 430,2013-08-06 05:24:00,
2013-08-06 00:29:00,73.8,67.3,29.97,SSE,158,0.1,2.5,80,0.00,,,0.00,WSDL version 430,2013-08-06 05:29:00,
2013-08-06 00:34:00,73.6,67.0,29.97,SSE,158,0.0,2.5,80,0.00,,,0.00,WSDL version 430,2013-08-06 05:34:00,
2013-08-06 00:39:00,73.8,67.6,29.97,SSE,158,0.5,2.2,81,0.00,,,0.00,WSDL version 430,2013-08-06 05:39:00,
2013-08-06 00:44:00,74.4,68.4,29.97,SSE,158,0.0,2.2,82,0.00,,,0.00,WSDL version 430,2013-08-06 05:44:00,
2013-08-06 00:49:00,74.2,67.9,29.97,SSE,158,0.6,1.3,81,0.00,,,0.00,WSDL version 430,2013-08-06 05:49:00,
2013-08-06 00:54:00,73.8,67.3,29.97,SSE,158,0.0,1.3,80,0.00,,,0.00,WSDL version 430,2013-08-06 05:54:00,
2013-08-06 00:59:00,73.5,67.3,29.97,SSE,158,0.0,1.3,81,0.00,,,0.00,WSDL version 430,2013-08-06 05:59:00,
2013-08-06 01:04:00,73.2,67.3,29.97,SSE,158,0.0,0.0,82,0.00,,,0.00,WSDL version 430,2013-08-06 06:04:00,
2013-08-06 01:09:00,73.4,67.9,29.94,SSE,158,0.0,0.0,83,0.00,,,0.00,WSDL version 430,2013-08-06 06:09:00,
2013-08-06 01:14:00,74.3,69.0,29.94,SSE,158,0.2,1.6,84,0.00,,,0.00,WSDL version 430,2013-08-06 06:14:00,
2013-08-06 01:19:00,74.1,68.1,29.94,SSE,158,0.0,1.6,82,0.00,,,0.00,WSDL version 430,2013-08-06 06:19:00,
2013-08-06 01:24:00,73.7,67.5,29.94,SSE,158,0.0,1.6,81,0.00,,,0.00,WSDL version 430,2013-08-06 06:24:00,
2013-08-06 01:29:00,73.3,67.4,29.94,SSE,152,0.0,1.1,82,0.00,,,0.00,WSDL version 430,2013-08-06 06:29:00,
2013-08-06 01:34:00,73.1,67.7,29.94,SE,135,0.0,1.1,83,0.00,,,0.00,WSDL version 430,2013-08-06 06:34:00,
2013-08-06 01:39:00,73.0,67.9,29.94,SE,135,0.0,0.0,84,0.00,,,0.00,WSDL version 430,2013-08-06 06:39:00,
2013-08-06 01:44:00,73.0,68.3,29.94,SE,135,0.0,0.0,85,0.00,,,0.00,WSDL version 430,2013-08-06 06:44:00,
2013-08-06 01:49:00,73.0,68.5,29.94,SE,135,0.0,0.9,86,0.00,,,0.00,WSDL version 430,2013-08-06 06:49:00,
2013-08-06 01:54:00,73.5,69.4,29.91,SE,144,0.0,1.3,87,0.00,,,0.00,WSDL version 430,2013-08-06 06:54:00,
2013-08-06 01:59:00,74.7,71.1,29.91,SE,135,0.0,3.8,88,0.00,,,0.00,WSDL version 430,2013-08-06 06:59:00,
2013-08-06 02:04:00,74.6,69.9,29.91,SSE,158,0.0,3.8,85,0.00,,,0.00,WSDL version 430,2013-08-06 07:04:00,
2013-08-06 02:09:00,74.2,69.2,29.91,South,171,0.0,1.1,84,0.00,,,0.00,WSDL version 430,2013-08-06 07:09:00,
2013-08-06 02:14:00,74.0,68.8,29.91,WSW,248,0.0,0.0,84,0.00,,,0.00,WSDL version 430,2013-08-06 07:14:00,
2013-08-06 02:19:00,73.8,68.8,29.91,NW,315,0.0,0.9,84,0.00,,,0.00,WSDL version 430,2013-08-06 07:19:00,
2013-08-06 02:24:00,74.2,69.6,29.94,NW,315,0.0,0.9,86,0.00,,,0.00,WSDL version 430,2013-08-06 07:24:00,
2013-08-06 02:29:00,74.4,69.6,29.94,West,270,0.0,0.0,85,0.00,,,0.00,WSDL version 430,2013-08-06 07:29:00,
2013-08-06 02:34:00,74.1,69.1,29.94,West,270,0.0,0.0,84,0.00,,,0.00,WSDL version 430,2013-08-06 07:34:00,
2013-08-06 02:39:00,73.8,69.0,29.94,SSE,158,0.0,0.0,85,0.00,,,0.00,WSDL version 430,2013-08-06 07:39:00,
2013-08-06 02:44:00,73.7,69.1,29.94,SSE,158,0.0,0.0,86,0.00,,,0.00,WSDL version 430,2013-08-06 07:44:00,
2013-08-06 02:49:00,73.6,69.1,29.94,South,172,0.0,0.0,86,0.00,,,0.00,WSDL version 430,2013-08-06 07:49:00,
2013-08-06 02:54:00,74.5,71.0,29.91,SSW,203,0.0,1.1,89,0.00,,,0.00,WSDL version 430,2013-08-06 07:54:00,
2013-08-06 02:59:00,74.9,70.8,29.91,SSE,158,0.0,1.1,87,0.00,,,0.00,WSDL version 430,2013-08-06 07:59:00,
2013-08-06 03:04:00,74.5,69.9,29.91,SSE,158,0.0,0.0,86,0.00,,,0.00,WSDL version 430,2013-08-06 08:04:00,
2013-08-06 03:09:00,74.0,69.4,29.91,SSE,158,0.0,0.0,86,0.00,,,0.00,WSDL version 430,2013-08-06 08:09:00,
2013-08-06 03:14:00,73.8,69.2,29.91,SSE,158,0.0,0.0,86,0.00,,,0.00,WSDL version 430,2013-08-06 08:14:00,
2013-08-06 03:19:00,73.7,69.1,29.91,WSW,248,0.0,0.0,86,0.00,,,0.00,WSDL version 430,2013-08-06 08:19:00,
2013-08-06 03:24:00,73.5,69.3,29.94,SW,233,1.7,3.4,87,0.00,,,0.00,WSDL version 430,2013-08-06 08:24:00,
2013-08-06 03:29:00,73.4,69.7,29.94,SSW,209,1.6,5.8,88,0.00,,,0.00,WSDL version 430,2013-08-06 08:29:00,
2013-08-06 03:34:00,74.1,71.1,29.94,West,278,2.5,6.9,90,0.00,,,0.00,WSDL version 430,2013-08-06 08:34:00,
2013-08-06 03:39:00,74.6,71.8,29.97,NW,315,4.8,12.8,91,0.00,,,0.00,WSDL version 430,2013-08-06 08:39:00,
2013-08-06 03:44:00,75.0,72.2,29.97,North,353,6.0,12.8,91,0.00,,,0.00,WSDL version 430,2013-08-06 08:44:00,
2013-08-06 03:49:00,75.2,71.8,29.97,SW,219,4.5,11.9,89,0.00,,,0.00,WSDL version 430,2013-08-06 08:49:00,
2013-08-06 03:54:00,75.2,70.6,29.97,SW,233,6.3,11.9,86,0.00,,,0.00,WSDL version 430,2013-08-06 08:54:00,
2013-08-06 03:59:00,75.0,70.0,29.97,NNW,331,3.9,12.5,84,0.00,,,0.00,WSDL version 430,2013-08-06 08:59:00,
2013-08-06 04:04:00,74.8,69.8,29.97,WNW,298,3.6,12.5,84,0.00,,,0.00,WSDL version 430,2013-08-06 09:04:00,
2013-08-06 04:09:00,74.6,69.6,29.97,WNW,289,4.8,12.1,84,0.00,,,0.00,WSDL version 430,2013-08-06 09:09:00,
2013-08-06 04:14:00,74.4,69.0,29.97,SSW,198,1.8,12.1,83,0.00,,,0.00,WSDL version 430,2013-08-06 09:14:00,
2013-08-06 04:19:00,74.0,68.8,29.97,NE,41,1.9,8.5,84,0.00,,,0.00,WSDL version 430,2013-08-06 09:19:00,
2013-08-06 04:24:00,73.7,68.7,29.97,NW,325,2.7,8.5,84,0.00,,,0.00,WSDL version 430,2013-08-06 09:24:00,
2013-08-06 04:29:00,73.4,68.9,29.97,SE,127,1.3,5.4,86,0.00,,,0.00,WSDL version 430,2013-08-06 09:29:00,
2013-08-06 04:34:00,73.3,68.9,29.97,NNW,335,3.2,4.9,86,0.00,,,0.00,WSDL version 430,2013-08-06 09:34:00,
2013-08-06 04:39:00,73.1,68.9,29.97,NNW,329,2.4,5.6,87,0.00,,,0.00,WSDL version 430,2013-08-06 09:39:00,
2013-08-06 04:44:00,72.9,68.8,29.97,NNW,338,2.9,5.6,87,0.00,,,0.00,WSDL version 430,2013-08-06 09:44:00,
2013-08-06 04:49:00,72.9,69.0,29.97,WNW,295,2.3,5.6,88,0.00,,,0.00,WSDL version 430,2013-08-06 09:49:00,
2013-08-06 04:54:00,72.8,68.9,29.97,ENE,59,1.1,5.4,88,0.00,,,0.00,WSDL version 430,2013-08-06 09:54:00,
2013-08-06 04:59:00,72.6,68.8,29.97,SW,215,0.4,3.4,88,0.00,,,0.00,WSDL version 430,2013-08-06 09:59:00,
2013-08-06 05:04:00,72.5,68.9,29.97,NNW,331,1.2,4.0,89,0.00,,,0.00,WSDL version 430,2013-08-06 10:04:00,
2013-08-06 05:09:00,72.3,68.9,29.97,SSE,158,0.2,4.0,89,0.00,,,0.00,WSDL version 430,2013-08-06 10:09:00,
2013-08-06 05:14:00,72.1,68.7,29.97,NW,315,1.4,4.0,89,0.00,,,0.00,WSDL version 430,2013-08-06 10:14:00,
2013-08-06 05:19:00,72.2,69.1,29.97,NNE,32,2.3,4.0,90,0.00,,,0.00,WSDL version 430,2013-08-06 10:19:00,
2013-08-06 05:24:00,72.5,69.5,29.97,ENE,68,0.0,4.0,90,0.00,,,0.00,WSDL version 430,2013-08-06 10:24:00,
2013-08-06 05:34:00,72.1,69.0,29.97,ENE,63,0.9,4.0,90,0.00,,,0.00,WSDL version 430,2013-08-06 10:34:00,
2013-08-06 05:39:00,72.0,69.0,29.97,ENE,68,0.2,2.9,91,0.00,,,0.00,WSDL version 430,2013-08-06 10:39:00,
2013-08-06 05:44:00,71.8,69.0,29.97,ENE,68,0.9,2.2,91,0.00,,,0.00,WSDL version 430,2013-08-06 10:44:00,
2013-08-06 05:49:00,71.7,69.0,29.97,ENE,68,0.0,2.7,91,0.00,,,0.00,WSDL version 430,2013-08-06 10:49:00,
2013-08-06 05:54:00,71.6,69.2,29.97,ENE,68,0.0,2.7,92,0.00,,,0.00,WSDL version 430,2013-08-06 10:54:00,
2013-08-06 05:59:00,71.5,69.3,29.97,ENE,68,0.0,2.7,93,0.00,,,0.00,WSDL version 430,2013-08-06 10:59:00,
2013-08-06 06:04:00,71.4,69.4,29.97,ENE,68,0.0,1.1,93,0.00,,,0.00,WSDL version 430,2013-08-06 11:04:00,
2013-08-06 06:09:00,71.8,70.0,29.97,ENE,68,0.0,0.9,94,0.00,,,0.00,WSDL version 430,2013-08-06 11:09:00,
2013-08-06 06:14:00,71.8,70.1,29.97,ENE,68,0.0,0.0,94,0.00,,,0.00,WSDL version 430,2013-08-06 11:14:00,
2013-08-06 06:19:00,71.8,70.1,29.97,ENE,68,0.8,2.0,94,0.00,,,0.00,WSDL version 430,2013-08-06 11:19:00,
2013-08-06 06:24:00,71.8,70.2,29.97,ENE,68,0.0,2.0,95,0.00,,,0.00,WSDL version 430,2013-08-06 11:24:00,
2013-08-06 06:29:00,72.3,70.9,29.97,ENE,68,0.0,0.0,96,0.00,,,0.00,WSDL version 430,2013-08-06 11:29:00,
2013-08-06 06:34:00,72.2,70.6,29.97,ENE,68,0.0,0.0,95,0.00,,,0.00,WSDL version 430,2013-08-06 11:34:00,
2013-08-06 06:39:00,72.0,70.3,29.97,East,90,0.7,2.7,94,0.00,,,0.00,WSDL version 430,2013-08-06 11:39:00,
2013-08-06 06:44:00,71.8,70.1,29.97,East,90,0.4,2.7,94,0.00,,,0.00,WSDL version 430,2013-08-06 11:44:00,
2013-08-06 06:49:00,71.8,70.2,29.97,North,360,0.6,2.2,95,0.00,,,0.00,WSDL version 430,2013-08-06 11:49:00,
2013-08-06 06:54:00,71.8,70.5,29.97,ENE,68,0.0,2.2,96,0.00,,,0.00,WSDL version 430,2013-08-06 11:54:00,
2013-08-06 06:59:00,72.3,71.1,29.97,East,90,0.0,2.7,96,0.00,,,0.00,WSDL version 430,2013-08-06 11:59:00,
2013-08-06 07:04:00,72.5,71.2,29.97,ESE,113,0.6,2.7,96,0.00,,,0.00,WSDL version 430,2013-08-06 12:04:00,
2013-08-06 07:09:00,72.2,70.6,29.97,NE,53,0.5,2.7,95,0.00,,,0.00,WSDL version 430,2013-08-06 12:09:00,
2013-08-06 07:14:00,72.6,71.2,29.97,ESE,113,1.1,2.9,96,0.00,,,0.00,WSDL version 430,2013-08-06 12:14:00,
2013-08-06 07:19:00,72.6,71.2,29.97,SSE,158,0.5,2.9,95,0.00,,,0.00,WSDL version 430,2013-08-06 12:19:00,
2013-08-06 07:24:00,72.4,70.7,29.97,East,95,0.4,2.7,94,0.00,,,0.00,WSDL version 430,2013-08-06 12:24:00,
2013-08-06 07:29:00,72.2,70.5,29.97,ENE,68,0.4,4.0,94,0.00,,,0.00,WSDL version 430,2013-08-06 12:29:00,
2013-08-06 07:34:00,72.0,70.3,29.97,ENE,68,0.1,4.0,94,0.00,,,0.00,WSDL version 430,2013-08-06 12:34:00,
2013-08-06 07:39:00,71.9,70.4,29.97,ENE,78,0.7,2.0,95,0.00,,,0.00,WSDL version 430,2013-08-06 12:39:00,
2013-08-06 07:44:00,72.0,70.8,29.97,ESE,113,1.0,2.9,96,0.00,,,0.00,WSDL version 430,2013-08-06 12:44:00,
2013-08-06 07:49:00,72.0,71.0,29.97,SSW,207,1.2,2.9,97,0.00,,,0.00,WSDL version 430,2013-08-06 12:49:00,
2013-08-06 07:54:00,71.8,71.0,30.00,SSE,153,0.0,2.2,97,0.00,,,0.00,WSDL version 430,2013-08-06 12:54:00,
2013-08-06 07:59:00,71.6,71.0,30.00,SE,135,0.1,2.5,98,0.00,,,0.00,WSDL version 430,2013-08-06 12:59:00,
2013-08-06 08:04:00,71.8,71.5,30.00,SE,135,0.0,2.5,99,0.00,,,0.00,WSDL version 430,2013-08-06 13:04:00,
2013-08-06 08:09:00,72.1,72.1,30.00,SSE,148,0.0,1.3,100,0.00,,,0.00,WSDL version 430,2013-08-06 13:09:00,
2013-08-06 08:14:00,72.0,72.0,30.00,SSE,155,0.7,2.7,100,0.00,,,0.00,WSDL version 430,2013-08-06 13:14:00,
2013-08-06 08:19:00,72.0,72.0,30.00,ESE,116,0.3,2.7,100,0.00,,,0.00,WSDL version 430,2013-08-06 13:19:00,
2013-08-06 08:24:00,71.9,71.9,30.00,SSE,162,0.3,2.7,100,0.00,,,0.00,WSDL version 430,2013-08-06 13:24:00,
2013-08-06 08:29:00,71.9,71.9,30.00,SSW,207,0.0,2.7,100,0.00,,,0.00,WSDL version 430,2013-08-06 13:29:00,
2013-08-06 08:34:00,72.2,72.2,30.00,NE,39,0.3,2.0,100,0.00,,,0.00,WSDL version 430,2013-08-06 13:34:00,
2013-08-06 08:39:00,72.8,72.8,30.00,SE,129,0.0,1.3,100,0.00,,,0.00,WSDL version 430,2013-08-06 13:39:00,
2013-08-06 08:44:00,72.7,72.7,30.00,SSE,158,0.0,1.1,100,0.00,,,0.00,WSDL version 430,2013-08-06 13:44:00,
2013-08-06 08:49:00,72.7,72.7,30.00,ESE,123,1.2,2.9,100,0.00,,,0.00,WSDL version 430,2013-08-06 13:49:00,
2013-08-06 08:54:00,72.7,72.7,30.00,South,180,1.4,2.9,100,0.00,,,0.00,WSDL version 430,2013-08-06 13:54:00,
2013-08-06 08:59:00,73.6,73.6,30.00,South,178,1.0,2.7,100,0.00,,,0.00,WSDL version 430,2013-08-06 13:59:00,
2013-08-06 09:04:00,73.9,73.9,30.00,SE,135,0.0,2.7,100,0.00,,,0.00,WSDL version 430,2013-08-06 14:04:00,
2013-08-06 09:09:00,73.7,73.6,30.00,SSE,162,0.0,2.5,100,0.00,,,0.00,WSDL version 430,2013-08-06 14:09:00,
2013-08-06 09:14:00,73.5,73.2,30.00,South,178,0.3,3.8,99,0.00,,,0.00,WSDL version 430,2013-08-06 14:14:00,
2013-08-06 09:19:00,73.4,73.1,30.00,ESE,113,1.3,3.8,99,0.00,,,0.00,WSDL version 430,2013-08-06 14:19:00,
2013-08-06 09:24:00,73.5,73.2,30.00,SE,135,0.6,4.0,99,0.00,,,0.00,WSDL version 430,2013-08-06 14:24:00,
2013-08-06 09:29:00,74.1,73.8,30.00,SSE,155,0.0,4.0,99,0.00,,,0.00,WSDL version 430,2013-08-06 14:29:00,
2013-08-06 09:34:00,74.3,74.0,30.00,SE,141,0.4,3.1,99,0.00,,,0.00,WSDL version 430,2013-08-06 14:34:00,
2013-08-06 09:39:00,74.3,74.0,30.00,South,190,1.6,4.0,99,0.00,,,0.00,WSDL version 430,2013-08-06 14:39:00,
2013-08-06 09:44:00,74.1,73.8,30.00,SSE,163,1.0,4.0,99,0.00,,,0.00,WSDL version 430,2013-08-06 14:44:00,
2013-08-06 09:49:00,74.0,73.6,30.00,SSE,152,2.6,4.0,99,0.00,,,0.00,WSDL version 430,2013-08-06 14:49:00,
2013-08-06 09:54:00,73.9,73.6,29.97,SSE,164,1.2,4.0,99,0.00,,,0.00,WSDL version 430,2013-08-06 14:54:00,
2013-08-06 09:59:00,74.4,74.1,29.97,SSE,168,1.8,4.0,99,0.00,,,0.00,WSDL version 430,2013-08-06 14:59:00,
2013-08-06 10:04:00,75.1,74.8,29.97,SSE,159,1.5,4.0,99,0.00,,,0.00,WSDL version 430,2013-08-06 15:04:00,
2013-08-06 10:09:00,74.9,74.6,30.00,WSW,242,2.3,4.3,99,0.00,,,0.00,WSDL version 430,2013-08-06 15:09:00,
2013-08-06 10:14:00,74.5,73.9,30.00,ESE,115,0.9,4.3,98,0.00,,,0.00,WSDL version 430,2013-08-06 15:14:00,
2013-08-06 10:19:00,74.3,73.7,30.00,South,180,1.6,5.6,98,0.00,,,0.00,WSDL version 430,2013-08-06 15:19:00,
2013-08-06 10:24:00,74.3,73.6,30.00,East,90,0.5,5.6,98,0.00,,,0.00,WSDL version 430,2013-08-06 15:24:00,
2013-08-06 10:29:00,75.0,74.5,30.00,SW,221,0.0,3.1,99,0.00,,,0.00,WSDL version 430,2013-08-06 15:29:00,
2013-08-06 10:34:00,75.6,75.0,30.00,SSE,148,0.7,2.9,98,0.00,,,0.00,WSDL version 430,2013-08-06 15:34:00,
2013-08-06 10:39:00,75.2,74.4,30.00,ESE,121,1.6,3.4,97,0.00,,,0.00,WSDL version 430,2013-08-06 15:39:00,
2013-08-06 10:44:00,74.8,73.9,30.00,SE,128,0.4,3.4,97,0.00,,,0.00,WSDL version 430,2013-08-06 15:44:00,
2013-08-06 10:49:00,74.9,74.0,30.00,ESE,105,1.8,3.4,97,0.00,,,0.00,WSDL version 430,2013-08-06 15:49:00,
2013-08-06 10:54:00,75.6,74.9,30.03,SSE,164,1.3,4.3,98,0.00,,,0.00,WSDL version 430,2013-08-06 15:54:00,
2013-08-06 10:59:00,75.7,74.7,30.03,ESE,123,1.3,4.3,97,0.00,,,0.00,WSDL version 430,2013-08-06 15:59:00,
2013-08-06 11:04:00,75.6,74.5,30.03,South,191,1.1,2.9,96,0.00,,,0.00,WSDL version 430,2013-08-06 16:04:00,
2013-08-06 11:09:00,76.3,74.8,30.00,SSW,200,1.4,4.0,95,0.00,,,0.00,WSDL version 430,2013-08-06 16:09:00,
2013-08-06 11:14:00,76.8,74.6,30.00,ESE,123,1.2,4.0,93,0.00,,,0.00,WSDL version 430,2013-08-06 16:14:00,
2013-08-06 11:19:00,76.1,73.1,30.00,SW,221,2.0,2.9,90,0.00,,,0.00,WSDL version 430,2013-08-06 16:19:00,
2013-08-06 11:24:00,75.5,72.0,30.03,SSW,196,1.8,2.9,89,0.00,,,0.00,WSDL version 430,2013-08-06 16:24:00,
2013-08-06 11:29:00,75.5,72.3,30.03,SSE,163,1.2,2.9,90,0.00,,,0.00,WSDL version 430,2013-08-06 16:29:00,
2013-08-06 11:34:00,76.5,73.7,30.03,South,174,1.6,2.9,91,0.00,,,0.00,WSDL version 430,2013-08-06 16:34:00,
2013-08-06 11:39:00,76.8,73.0,30.03,SSW,196,2.2,3.8,88,0.00,,,0.00,WSDL version 430,2013-08-06 16:39:00,
2013-08-06 11:44:00,76.0,71.4,30.03,SSW,213,1.5,3.8,86,0.00,,,0.00,WSDL version 430,2013-08-06 16:44:00,
2013-08-06 11:49:00,75.7,71.3,30.03,SW,225,2.3,3.4,86,0.00,,,0.00,WSDL version 430,2013-08-06 16:49:00,
2013-08-06 11:54:00,76.1,72.1,30.00,South,182,2.3,7.6,87,0.00,,,0.00,WSDL version 430,2013-08-06 16:54:00,
2013-08-06 11:59:00,76.9,72.8,30.00,ESE,122,1.9,7.6,87,0.00,,,0.00,WSDL version 430,2013-08-06 16:59:00,
2013-08-06 12:04:00,76.6,72.3,30.00,SE,140,2.1,4.7,86,0.00,,,0.00,WSDL version 430,2013-08-06 17:04:00,
2013-08-06 12:09:00,76.2,71.5,30.03,SSW,205,1.7,4.7,86,0.00,,,0.00,WSDL version 430,2013-08-06 17:09:00,
2013-08-06 12:14:00,76.6,72.2,30.03,SE,128,3.0,5.8,86,0.00,,,0.00,WSDL version 430,2013-08-06 17:14:00,
2013-08-06 12:19:00,77.5,71.7,30.03,South,191,2.0,5.8,83,0.00,,,0.00,WSDL version 430,2013-08-06 17:19:00,
2013-08-06 12:24:00,76.8,70.2,30.03,South,188,2.2,5.4,80,0.00,,,0.00,WSDL version 430,2013-08-06 17:24:00,
2013-08-06 12:29:00,77.1,70.9,30.03,SSW,211,1.9,3.6,81,0.00,,,0.00,WSDL version 430,2013-08-06 17:29:00,
2013-08-06 12:34:00,78.2,71.6,30.03,WSW,252,2.1,4.9,80,0.00,,,0.00,WSDL version 430,2013-08-06 17:34:00,
2013-08-06 12:39:00,78.3,71.4,30.03,SSE,158,2.6,4.9,80,0.00,,,0.00,WSDL version 430,2013-08-06 17:39:00,
2013-08-06 12:44:00,78.4,71.5,30.03,SSW,203,2.1,3.6,79,0.00,,,0.00,WSDL version 430,2013-08-06 17:44:00,
2013-08-06 12:49:00,78.8,70.8,30.03,South,189,2.4,3.4,76,0.00,,,0.00,WSDL version 430,2013-08-06 17:49:00,
2013-08-06 12:54:00,78.2,70.5,30.00,SSW,200,1.7,4.5,77,0.00,,,0.00,WSDL version 430,2013-08-06 17:54:00,
2013-08-06 12:59:00,78.0,70.8,30.00,South,189,1.9,4.5,79,0.00,,,0.00,WSDL version 430,2013-08-06 17:59:00,
2013-08-06 13:04:00,78.4,71.4,30.00,South,180,2.0,3.4,79,0.00,,,0.00,WSDL version 430,2013-08-06 18:04:00,
2013-08-06 13:09:00,79.0,71.5,30.00,SW,227,2.2,3.6,78,0.00,,,0.00,WSDL version 430,2013-08-06 18:09:00,
2013-08-06 13:14:00,78.4,70.6,30.00,SW,219,2.4,3.6,77,0.00,,,0.00,WSDL version 430,2013-08-06 18:14:00,
2013-08-06 13:19:00,77.8,69.9,30.00,SW,234,1.1,3.4,77,0.00,,,0.00,WSDL version 430,2013-08-06 18:19:00,
2013-08-06 13:24:00,78.8,70.9,29.97,SSW,207,2.2,4.5,77,0.00,,,0.00,WSDL version 430,2013-08-06 18:24:00,
2013-08-06 13:29:00,79.0,71.1,29.97,SSW,195,2.3,5.6,77,0.00,,,0.00,WSDL version 430,2013-08-06 18:29:00,
2013-08-06 13:34:00,78.3,70.3,29.97,WSW,241,2.5,5.6,76,0.00,,,0.00,WSDL version 430,2013-08-06 18:34:00,
2013-08-06 13:39:00,77.8,69.9,30.00,SSE,151,1.7,4.0,77,0.00,,,0.00,WSDL version 430,2013-08-06 18:39:00,
2013-08-06 13:44:00,77.6,70.4,30.00,SSW,206,1.3,4.0,79,0.00,,,0.00,WSDL version 430,2013-08-06 18:44:00,
2013-08-06 13:49:00,78.7,71.4,30.00,SSE,160,2.4,5.6,78,0.00,,,0.00,WSDL version 430,2013-08-06 18:49:00,
2013-08-06 13:54:00,78.5,70.7,30.00,SSW,200,2.1,5.6,77,0.00,,,0.00,WSDL version 430,2013-08-06 18:54:00,
2013-08-06 14:04:00,78.9,71.5,30.00,South,190,2.1,3.6,78,0.00,,,0.00,WSDL version 430,2013-08-06 19:04:00,
2013-08-06 14:09:00,80.3,72.7,30.00,South,180,2.3,6.3,78,0.00,,,0.00,WSDL version 430,2013-08-06 19:09:00,
2013-08-06 14:14:00,80.0,71.7,30.00,SE,145,1.8,6.3,76,0.00,,,0.00,WSDL version 430,2013-08-06 19:14:00,
2013-08-06 14:19:00,80.0,71.6,30.00,SSW,211,1.6,3.6,76,0.00,,,0.00,WSDL version 430,2013-08-06 19:19:00,
2013-08-06 14:24:00,80.6,71.9,30.00,SW,216,1.5,3.8,75,0.00,,,0.00,WSDL version 430,2013-08-06 19:24:00,
2013-08-06 14:29:00,80.2,70.6,30.00,SSW,211,2.2,3.8,72,0.00,,,0.00,WSDL version 430,2013-08-06 19:29:00,
2013-08-06 14:34:00,79.4,70.1,30.00,ENE,74,1.7,3.8,73,0.00,,,0.00,WSDL version 430,2013-08-06 19:34:00,
2013-08-06 14:39:00,79.4,71.0,29.97,ESE,113,1.0,3.6,76,0.00,,,0.00,WSDL version 430,2013-08-06 19:39:00,
2013-08-06 14:44:00,80.2,71.7,29.97,ESE,113,1.7,4.0,75,0.00,,,0.00,WSDL version 430,2013-08-06 19:44:00,
2013-08-06 14:49:00,79.9,71.3,29.97,South,187,1.3,4.0,75,0.00,,,0.00,WSDL version 430,2013-08-06 19:49:00,
2013-08-06 14:54:00,80.3,72.0,29.97,ESE,105,0.9,2.7,76,0.00,,,0.00,WSDL version 430,2013-08-06 19:54:00,
2013-08-06 14:59:00,80.5,71.5,29.97,SE,129,1.7,3.6,74,0.00,,,0.00,WSDL version 430,2013-08-06 19:59:00,
2013-08-06 15:04:00,80.0,71.3,29.97,SW,215,1.3,3.6,75,0.00,,,0.00,WSDL version 430,2013-08-06 20:04:00,
2013-08-06 15:09:00,80.2,71.5,29.97,SW,230,0.1,2.9,75,0.00,,,0.00,WSDL version 430,2013-08-06 20:09:00,
2013-08-06 15:14:00,79.9,70.9,29.97,East,84,1.0,2.9,74,0.00,,,0.00,WSDL version 430,2013-08-06 20:14:00,
2013-08-06 15:19:00,80.0,71.3,29.97,ESE,103,1.0,2.9,75,0.00,,,0.00,WSDL version 430,2013-08-06 20:19:00,
2013-08-06 15:24:00,80.4,71.4,29.97,SSW,208,0.1,2.5,74,0.00,,,0.00,WSDL version 430,2013-08-06 20:24:00,
2013-08-06 15:29:00,79.6,70.8,29.97,SE,135,0.5,2.2,75,0.00,,,0.00,WSDL version 430,2013-08-06 20:29:00,
2013-08-06 15:34:00,80.0,71.4,29.97,South,182,0.5,3.1,75,0.00,,,0.00,WSDL version 430,2013-08-06 20:34:00,
2013-08-06 15:39:00,79.6,71.0,29.94,SE,135,0.0,3.1,75,0.00,,,0.00,WSDL version 430,2013-08-06 20:39:00,
2013-08-06 15:44:00,79.3,70.9,29.94,WNW,293,0.7,2.7,76,0.00,,,0.00,WSDL version 430,2013-08-06 20:44:00,
2013-08-06 15:49:00,79.3,71.1,29.94,ESE,113,0.0,2.7,76,0.00,,,0.00,WSDL version 430,2013-08-06 20:49:00,
2013-08-06 15:54:00,79.0,70.8,29.97,SE,133,1.4,2.7,76,0.00,,,0.00,WSDL version 430,2013-08-06 20:54:00,
2013-08-06 15:59:00,79.6,72.0,29.97,South,180,0.0,2.7,78,0.00,,,0.00,WSDL version 430,2013-08-06 20:59:00,
2013-08-06 16:04:00,79.6,71.6,29.97,South,180,0.0,0.9,77,0.00,,,0.00,WSDL version 430,2013-08-06 21:04:00,
2013-08-06 16:09:00,78.8,71.0,29.97,NW,315,1.3,2.0,77,0.00,,,0.00,WSDL version 430,2013-08-06 21:09:00,
2013-08-06 16:14:00,78.7,71.3,29.97,SE,135,1.0,2.7,78,0.00,,,0.00,WSDL version 430,2013-08-06 21:14:00,
2013-08-06 16:19:00,78.2,70.9,29.97,ESE,117,3.2,4.5,79,0.00,,,0.00,WSDL version 430,2013-08-06 21:19:00,
2013-08-06 16:24:00,78.2,71.5,29.91,SSE,161,1.3,4.5,80,0.00,,,0.00,WSDL version 430,2013-08-06 21:24:00,
2013-08-06 16:29:00,78.4,71.8,29.91,ESE,113,0.0,3.1,80,0.00,,,0.00,WSDL version 430,2013-08-06 21:29:00,
2013-08-06 16:34:00,78.3,71.7,29.91,ENE,76,0.0,2.2,80,0.00,,,0.00,WSDL version 430,2013-08-06 21:34:00,
2013-08-06 16:39:00,79.0,73.2,29.94,East,96,0.2,2.5,83,0.00,,,0.00,WSDL version 430,2013-08-06 21:39:00,
2013-08-06 16:44:00,79.5,73.4,29.94,SSW,194,0.3,2.5,82,0.00,,,0.00,WSDL version 430,2013-08-06 21:44:00,
2013-08-06 16:49:00,79.6,73.7,29.94,SSW,198,1.2,3.1,82,0.00,,,0.00,WSDL version 430,2013-08-06 21:49:00,
2013-08-06 16:54:00,80.5,73.8,29.94,SSW,207,0.2,3.1,80,0.00,,,0.00,WSDL version 430,2013-08-06 21:54:00,
2013-08-06 16:59:00,80.3,73.2,29.94,WNW,290,0.0,2.0,79,0.00,,,0.00,WSDL version 430,2013-08-06 21:59:00,
2013-08-06 17:04:00,80.4,73.6,29.94,SE,127,0.3,1.6,80,0.00,,,0.00,WSDL version 430,2013-08-06 22:04:00,
2013-08-06 17:09:00,81.3,74.7,29.94,ESE,115,1.9,3.4,81,0.00,,,0.00,WSDL version 430,2013-08-06 22:09:00,
2013-08-06 17:14:00,81.5,74.4,29.94,NW,321,1.0,3.4,79,0.00,,,0.00,WSDL version 430,2013-08-06 22:14:00,
2013-08-06 17:19:00,81.4,74.2,29.94,ESE,108,0.6,2.5,79,0.00,,,0.00,WSDL version 430,2013-08-06 22:19:00,
2013-08-06 17:24:00,81.4,74.2,29.94,SE,135,1.5,3.4,79,0.00,,,0.00,WSDL version 430,2013-08-06 22:24:00,
2013-08-06 17:29:00,81.1,73.6,29.94,SSE,158,0.0,3.4,78,0.00,,,0.00,WSDL version 430,2013-08-06 22:29:00,
2013-08-06 17:34:00,81.1,73.8,29.94,SE,133,0.6,2.5,79,0.00,,,0.00,WSDL version 430,2013-08-06 22:34:00,
2013-08-06 17:39:00,81.1,73.6,29.94,SE,135,0.0,2.5,78,0.00,,,0.00,WSDL version 430,2013-08-06 22:39:00,
2013-08-06 17:44:00,81.1,73.9,29.94,SSE,158,0.0,1.3,79,0.00,,,0.00,WSDL version 430,2013-08-06 22:44:00,
2013-08-06 17:49:00,81.8,74.7,29.94,South,182,0.0,1.6,79,0.00,,,0.00,WSDL version 430,2013-08-06 22:49:00,
2013-08-06 17:54:00,82.0,74.5,29.94,SSE,158,0.8,3.1,78,0.00,,,0.00,WSDL version 430,2013-08-06 22:54:00,
2013-08-06 17:59:00,82.2,74.6,29.94,ESE,117,1.5,3.1,78,0.00,,,0.00,WSDL version 430,2013-08-06 22:59:00,
2013-08-06 18:04:00,83.0,75.3,29.94,SE,135,0.1,3.1,78,0.00,,,0.00,WSDL version 430,2013-08-06 23:04:00,
2013-08-06 18:09:00,83.3,75.3,29.94,SE,135,0.0,2.7,77,0.00,,,0.00,WSDL version 430,2013-08-06 23:09:00,
2013-08-06 18:14:00,84.1,75.9,29.94,SSE,151,0.2,2.5,77,0.00,,,0.00,WSDL version 430,2013-08-06 23:14:00,
2013-08-06 18:19:00,84.9,76.2,29.94,ESE,115,1.8,3.1,75,0.00,,,0.00,WSDL version 430,2013-08-06 23:19:00,
2013-08-06 18:24:00,84.9,75.8,29.91,SE,135,2.0,3.6,74,0.00,,,0.00,WSDL version 430,2013-08-06 23:24:00,
2013-08-06 18:29:00,85.5,76.2,29.91,East,90,1.4,3.6,74,0.00,,,0.00,WSDL version 430,2013-08-06 23:29:00,
2013-08-06 18:34:00,86.0,76.1,29.91,South,182,0.0,2.7,72,0.00,,,0.00,WSDL version 430,2013-08-06 23:34:00,
2013-08-06 18:39:00,86.0,75.6,29.91,SE,135,0.4,1.3,71,0.00,,,0.00,WSDL version 430,2013-08-06 23:39:00,
2013-08-06 18:44:00,86.4,75.7,29.91,SE,135,0.6,2.2,71,0.00,,,0.00,WSDL version 430,2013-08-06 23:44:00,
2013-08-06 18:49:00,86.3,75.4,29.91,ESE,120,0.9,2.7,70,0.00,,,0.00,WSDL version 430,2013-08-06 23:49:00,
2013-08-06 18:54:00,86.3,75.3,29.91,SE,124,0.7,3.4,70,0.00,,,0.00,WSDL version 430,2013-08-06 23:54:00,
2013-08-06 18:59:00,86.5,74.7,29.91,SE,135,1.3,3.4,68,0.00,,,0.00,WSDL version 430,2013-08-06 23:59:00,
2013-08-06 19:04:00,85.9,74.2,29.91,SSE,158,0.7,2.9,68,0.00,,,0.00,WSDL version 430,2013-08-07 00:04:00,
2013-08-06 19:09:00,85.6,74.2,29.91,SE,141,1.2,2.7,69,0.00,,,0.00,WSDL version 430,2013-08-07 00:09:00,
2013-08-06 19:14:00,85.2,73.4,29.91,SE,135,0.8,2.7,68,0.00,,,0.00,WSDL version 430,2013-08-07 00:14:00,
2013-08-06 19:19:00,84.4,73.4,29.91,SE,135,1.3,2.5,70,0.00,,,0.00,WSDL version 430,2013-08-07 00:19:00,
2013-08-06 19:24:00,84.4,74.0,29.88,SE,135,0.0,2.5,71,0.00,,,0.00,WSDL version 430,2013-08-07 00:24:00,
2013-08-06 19:29:00,83.8,73.4,29.88,SSE,158,0.0,2.2,71,0.00,,,0.00,WSDL version 430,2013-08-07 00:29:00,
2013-08-06 19:34:00,83.8,74.0,29.88,SSE,158,0.1,1.6,73,0.00,,,0.00,WSDL version 430,2013-08-07 00:34:00,
2013-08-06 19:39:00,83.8,74.2,29.88,SSE,158,0.0,1.6,73,0.00,,,0.00,WSDL version 430,2013-08-07 00:39:00,
2013-08-06 19:44:00,83.2,73.7,29.88,SSE,158,0.0,0.0,73,0.00,,,0.00,WSDL version 430,2013-08-07 00:44:00,
2013-08-06 19:49:00,83.1,73.9,29.88,SSE,158,0.0,1.3,74,0.00,,,0.00,WSDL version 430,2013-08-07 00:49:00,
2013-08-06 19:54:00,82.9,73.8,29.91,SSE,158,0.0,1.3,74,0.00,,,0.00,WSDL version 430,2013-08-07 00:54:00,
2013-08-06 19:59:00,82.3,73.7,29.91,SSE,158,0.0,0.9,75,0.00,,,0.00,WSDL version 430,2013-08-07 00:59:00,
2013-08-06 20:04:00,82.4,74.1,29.91,SSE,158,0.0,0.0,76,0.00,,,0.00,WSDL version 430,2013-08-07 01:04:00,
2013-08-06 20:09:00,82.7,74.4,29.91,SSE,158,0.0,0.0,76,0.00,,,0.00,WSDL version 430,2013-08-07 01:09:00,
2013-08-06 20:19:00,81.4,73.4,29.91,SSE,158,0.0,0.0,77,0.00,,,0.00,WSDL version 430,2013-08-07 01:19:00,
2013-08-06 20:24:00,81.2,73.6,29.91,SSE,158,0.0,0.0,78,0.00,,,0.00,WSDL version 430,2013-08-07 01:24:00,
2013-08-06 20:29:00,80.8,73.3,29.91,SSE,158,0.0,0.0,78,0.00,,,0.00,WSDL version 430,2013-08-07 01:29:00,
2013-08-06 20:34:00,80.6,73.3,29.91,SSE,158,0.0,0.0,79,0.00,,,0.00,WSDL version 430,2013-08-07 01:34:00,
2013-08-06 20:39:00,80.5,73.4,29.91,SSE,158,0.0,0.0,79,0.00,,,0.00,WSDL version 430,2013-08-07 01:39:00,
2013-08-06 20:44:00,80.0,73.1,29.91,SSE,158,0.0,0.0,79,0.00,,,0.00,WSDL version 430,2013-08-07 01:44:00,
2013-08-06 20:49:00,80.2,73.4,29.91,SSE,158,0.0,0.0,80,0.00,,,0.00,WSDL version 430,2013-08-07 01:49:00,
2013-08-06 20:54:00,79.8,73.1,29.91,SSE,158,0.0,0.0,80,0.00,,,0.00,WSDL version 430,2013-08-07 01:54:00,
2013-08-06 20:59:00,79.6,73.3,29.91,SSE,158,0.0,0.0,81,0.00,,,0.00,WSDL version 430,2013-08-07 01:59:00,
2013-08-06 21:04:00,79.6,73.6,29.91,SSE,158,0.0,0.0,82,0.49,,,0.49,WSDL version 430,2013-08-07 02:04:00,
2013-08-06 21:09:00,79.2,73.2,29.91,SSE,158,0.0,0.0,82,0.49,,,0.49,WSDL version 430,2013-08-07 02:09:00,
2013-08-06 21:14:00,79.4,73.7,29.91,SSE,158,0.0,0.0,83,0.49,,,0.49,WSDL version 430,2013-08-07 02:14:00,
2013-08-06 21:19:00,79.3,73.4,29.91,SSE,158,0.0,0.0,82,0.49,,,0.49,WSDL version 430,2013-08-07 02:19:00,
2013-08-06 21:24:00,79.0,73.3,29.91,SSE,158,0.0,0.0,83,0.49,,,0.49,WSDL version 430,2013-08-07 02:24:00,
2013-08-06 21:29:00,79.3,73.8,29.91,West,270,0.0,0.0,83,0.49,,,0.49,WSDL version 430,2013-08-07 02:29:00,
2013-08-06 21:34:00,79.0,73.4,29.91,West,280,0.0,0.9,83,0.49,,,0.49,WSDL version 430,2013-08-07 02:34:00,
2013-08-06 21:39:00,78.9,73.7,29.94,WNW,293,0.0,1.3,84,0.49,,,0.49,WSDL version 430,2013-08-07 02:39:00,
2013-08-06 21:44:00,79.1,73.8,29.94,WSW,257,0.1,1.6,84,0.49,,,0.49,WSDL version 430,2013-08-07 02:44:00,
2013-08-06 21:49:00,78.8,73.7,29.94,WSW,248,0.0,1.6,84,0.49,,,0.49,WSDL version 430,2013-08-07 02:49:00,
2013-08-06 21:54:00,79.3,74.6,29.94,West,270,0.0,0.9,86,0.49,,,0.49,WSDL version 430,2013-08-07 02:54:00,
2013-08-06 21:59:00,79.1,74.0,29.94,West,281,0.0,0.9,84,0.49,,,0.49,WSDL version 430,2013-08-07 02:59:00,
2013-08-06 22:04:00,79.1,74.3,29.94,WSW,244,0.0,1.1,85,0.00,,,0.49,WSDL version 430,2013-08-07 03:04:00,
2013-08-06 22:09:00,79.5,74.5,29.94,South,173,0.0,1.6,85,0.00,,,0.49,WSDL version 430,2013-08-07 03:09:00,
2013-08-06 22:14:00,79.1,73.7,29.94,West,268,0.0,1.6,84,0.00,,,0.49,WSDL version 430,2013-08-07 03:14:00,
2013-08-06 22:19:00,79.4,74.5,29.94,SSW,207,0.0,0.0,85,0.00,,,0.49,WSDL version 430,2013-08-07 03:19:00,
2013-08-06 22:24:00,79.3,74.0,29.94,SSW,194,0.8,2.0,84,0.00,,,0.49,WSDL version 430,2013-08-07 03:24:00,
2013-08-06 22:29:00,78.9,73.5,29.94,ENE,68,0.1,2.5,84,0.00,,,0.49,WSDL version 430,2013-08-07 03:29:00,
2013-08-06 22:34:00,79.1,74.2,29.94,ENE,78,0.4,2.5,85,0.00,,,0.49,WSDL version 430,2013-08-07 03:34:00,
2013-08-06 22:39:00,78.8,73.7,29.94,NNW,338,0.7,2.2,84,0.00,,,0.49,WSDL version 430,2013-08-07 03:39:00,
2013-08-06 22:44:00,78.7,74.0,29.94,NNW,338,0.0,2.2,85,0.00,,,0.49,WSDL version 430,2013-08-07 03:44:00,
2013-08-06 22:49:00,78.7,74.0,29.94,NE,43,0.0,1.3,86,0.00,,,0.49,WSDL version 430,2013-08-07 03:49:00,
2013-08-06 22:54:00,78.4,73.7,29.94,SSE,158,0.0,1.3,86,0.00,,,0.49,WSDL version 430,2013-08-07 03:54:00,
2013-08-06 22:59:00,78.9,74.6,29.94,SSE,158,0.0,0.0,87,0.00,,,0.49,WSDL version 430,2013-08-07 03:59:00,
2013-08-06 23:04:00,78.9,74.3,29.94,West,270,0.0,2.0,86,0.00,,,0.49,WSDL version 430,2013-08-07 04:04:00,
2013-08-06 23:09:00,78.8,74.4,29.94,West,270,0.0,2.0,86,0.00,,,0.49,WSDL version 430,2013-08-07 04:09:00,
2013-08-06 23:14:00,79.1,74.6,29.94,West,270,0.0,0.0,86,0.00,,,0.49,WSDL version 430,2013-08-07 04:14:00,
2013-08-06 23:19:00,78.7,74.0,29.94,West,270,0.0,0.0,86,0.00,,,0.49,WSDL version 430,2013-08-07 04:19:00,
2013-08-06 23:24:00,78.8,74.2,29.94,West,270,0.0,0.0,86,0.00,,,0.49,WSDL version 430,2013-08-07 04:24:00,
2013-08-06 23:29:00,78.6,73.9,29.94,WNW,284,0.0,0.0,86,0.00,,,0.49,WSDL version 430,2013-08-07 04:29:00,
2013-08-06 23:34:00,78.3,73.8,29.94,NW,315,0.0,0.0,86,0.00,,,0.49,WSDL version 430,2013-08-07 04:34:00,
2013-08-06 23:39:00,78.4,74.1,29.94,NW,315,0.0,0.0,87,0.00,,,0.49,WSDL version 430,2013-08-07 04:39:00,
2013-08-06 23:44:00,78.2,73.9,29.94,NNE,27,0.0,1.1,87,0.00,,,0.49,WSDL version 430,2013-08-07 04:44:00,
2013-08-06 23:49:00,77.8,73.5,29.94,SE,135,0.0,1.1,87,0.00,,,0.49,WSDL version 430,2013-08-07 04:49:00,
2013-08-06 23:54:00,78.0,74.1,29.94,SE,142,0.0,2.7,88,0.00,,,0.49,WSDL version 430,2013-08-07 04:54:00,
2013-08-06 23:59:00,78.3,74.3,29.94,SSE,158,0.0,2.7,88,0.00,,,0.49,WSDL version 430,2013-08-07 04:59:00,